Time,TemperatureF,DewpointF,PressureIn,WindDirection,WindDirectionDegrees,WindSpeedMPH,WindSpeedGustMPH,Humidity,HourlyPrecipIn,Conditions,Clouds,dailyrainin,SolarRadiationWatts/m^2,SoftwareType,DateUTC
2013-01-19 00:07:00,56.0,48.9,30.28,North,353,3.0,3.0,77,0.00,,,0.00,0,Wunderground v.1.15,2013-01-19 05:07:00,
2013-01-19 00:12:00,55.9,48.8,30.28,North,7,3.0,4.0,77,0.00,,,0.00,0,Wunderground v.1.15,2013-01-19 05:12:00,
2013-01-19 00:17:00,55.9,48.4,30.28,North,0,4.0,4.0,76,0.00,,,0.00,0,Wunderground v.1.15,2013-01-19 05:17:00,
2013-01-19 00:22:00,55.9,48.4,30.28,North,0,4.0,6.0,76,0.00,,,0.00,0,Wunderground v.1.15,2013-01-19 05:22:00,
2013-01-19 00:32:00,55.7,48.2,30.27,North,10,5.0,5.0,76,0.00,,,0.00,0,Wunderground v.1.15,2013-01-19 05:32:00,
2013-01-19 00:42:00,55.7,48.2,30.27,NNE,20,5.0,5.0,76,0.00,,,0.00,0,Wunderground v.1.15,2013-01-19 05:42:00,
2013-01-19 00:47:00,55.7,48.2,30.27,North,3,4.0,5.0,76,0.00,,,0.00,0,Wunderground v.1.15,2013-01-19 05:47:00,
2013-01-19 00:57:00,55.7,48.2,30.27,NNE,18,3.0,5.0,76,0.00,,,0.00,0,Wunderground v.1.15,2013-01-19 05:57:00,
2013-01-19 01:02:00,55.7,48.2,30.27,NNE,13,4.0,4.0,76,0.00,,,0.00,0,Wunderground v.1.15,2013-01-19 06:02:00,
2013-01-19 01:12:00,55.4,48.0,30.27,NNE,28,4.0,4.0,76,0.00,,,0.00,0,Wunderground v.1.15,2013-01-19 06:12:00,
2013-01-19 01:17:00,55.4,48.0,30.27,NNE,24,4.0,5.0,76,0.00,,,0.00,0,Wunderground v.1.15,2013-01-19 06:17:00,
2013-01-19 01:22:00,55.3,47.9,30.27,NW,304,4.0,5.0,76,0.00,,,0.00,0,Wunderground v.1.15,2013-01-19 06:22:00,
2013-01-19 01:27:00,55.3,48.2,30.27,NNE,25,3.0,5.0,77,0.00,,,0.00,0,Wunderground v.1.15,2013-01-19 06:27:00,
2013-01-19 01:32:00,55.1,48.0,30.27,North,7,3.0,3.0,77,0.00,,,0.00,0,Wunderground v.1.15,2013-01-19 06:32:00,
2013-01-19 01:42:00,55.1,48.0,30.27,North,354,3.0,3.0,77,0.00,,,0.00,0,Wunderground v.1.15,2013-01-19 06:42:00,
2013-01-19 01:52:00,55.1,48.0,30.26,NNE,14,3.0,3.0,77,0.00,,,0.00,0,Wunderground v.1.15,2013-01-19 06:52:00,
2013-01-19 02:02:00,55.0,48.3,30.26,North,3,3.0,3.0,78,0.00,,,0.00,0,Wunderground v.1.15,2013-01-19 07:02:00,
2013-01-19 02:07:00,54.8,48.1,30.25,NNE,32,3.0,5.0,78,0.00,,,0.00,0,Wunderground v.1.15,2013-01-19 07:07:00,
2013-01-19 02:12:00,54.8,48.1,30.25,NNE,14,4.0,4.0,78,0.00,,,0.00,0,Wunderground v.1.15,2013-01-19 07:12:00,
2013-01-19 02:22:00,54.8,48.1,30.25,North,4,4.0,7.0,78,0.00,,,0.00,0,Wunderground v.1.15,2013-01-19 07:22:00,
2013-01-19 02:27:00,54.8,48.4,30.25,North,0,4.0,7.0,79,0.00,,,0.00,0,Wunderground v.1.15,2013-01-19 07:27:00,
2013-01-19 02:32:00,54.7,48.3,30.25,NE,34,3.0,3.0,79,0.00,,,0.00,0,Wunderground v.1.15,2013-01-19 07:32:00,
2013-01-19 02:37:00,54.7,48.3,30.25,NNE,16,2.0,4.0,79,0.00,,,0.00,0,Wunderground v.1.15,2013-01-19 07:37:00,
2013-01-19 02:47:00,54.7,48.3,30.25,North,6,3.0,3.0,79,0.00,,,0.00,0,Wunderground v.1.15,2013-01-19 07:47:00,
2013-01-19 02:52:00,54.7,48.6,30.25,NNE,27,3.0,3.0,80,0.00,,,0.00,0,Wunderground v.1.15,2013-01-19 07:52:00,
2013-01-19 02:57:00,54.7,48.6,30.25,NE,45,2.0,3.0,80,0.00,,,0.00,0,Wunderground v.1.15,2013-01-19 07:57:00,
2013-01-19 03:07:00,54.7,48.6,30.25,NNE,18,4.0,4.0,80,0.00,,,0.00,0,Wunderground v.1.15,2013-01-19 08:07:00,
2013-01-19 03:12:00,54.7,48.6,30.25,NNE,21,3.0,4.0,80,0.00,,,0.00,0,Wunderground v.1.15,2013-01-19 08:12:00,
2013-01-19 03:17:00,54.5,48.5,30.25,NNE,31,3.0,4.0,80,0.00,,,0.00,0,Wunderground v.1.15,2013-01-19 08:17:00,
2013-01-19 03:22:00,54.5,48.8,30.25,NNE,14,3.0,3.0,81,0.00,,,0.00,0,Wunderground v.1.15,2013-01-19 08:22:00,
2013-01-19 03:32:00,54.5,48.8,30.25,NE,40,2.0,2.0,81,0.00,,,0.00,0,Wunderground v.1.15,2013-01-19 08:32:00,
2013-01-19 03:37:00,54.5,48.8,30.25,NE,35,3.0,4.0,81,0.00,,,0.00,0,Wunderground v.1.15,2013-01-19 08:37:00,
2013-01-19 03:42:00,54.7,49.0,30.25,NNE,31,3.0,3.0,81,0.00,,,0.00,0,Wunderground v.1.15,2013-01-19 08:42:00,
2013-01-19 03:52:00,54.7,49.0,30.24,NE,37,2.0,3.0,81,0.00,,,0.00,0,Wunderground v.1.15,2013-01-19 08:52:00,
2013-01-19 03:57:00,54.7,49.0,30.24,North,8,2.0,3.0,81,0.00,,,0.00,0,Wunderground v.1.15,2013-01-19 08:57:00,
2013-01-19 04:07:00,54.7,49.3,30.24,North,0,3.0,3.0,82,0.00,,,0.00,0,Wunderground v.1.15,2013-01-19 09:07:00,
2013-01-19 04:17:00,54.7,49.3,30.24,NNE,27,3.0,3.0,82,0.00,,,0.00,0,Wunderground v.1.15,2013-01-19 09:17:00,
2013-01-19 04:22:00,54.7,49.3,30.24,NE,44,3.0,5.0,82,0.00,,,0.00,0,Wunderground v.1.15,2013-01-19 09:22:00,
2013-01-19 04:27:00,54.7,49.3,30.24,NNE,18,3.0,5.0,82,0.00,,,0.00,0,Wunderground v.1.15,2013-01-19 09:27:00,
2013-01-19 04:32:00,54.7,49.3,30.24,North,1,3.0,5.0,82,0.00,,,0.00,0,Wunderground v.1.15,2013-01-19 09:32:00,
2013-01-19 04:37:00,54.8,49.4,30.24,NNE,24,2.0,5.0,82,0.00,,,0.00,0,Wunderground v.1.15,2013-01-19 09:37:00,
2013-01-19 04:42:00,54.8,49.4,30.24,NE,54,3.0,3.0,82,0.00,,,0.00,0,Wunderground v.1.15,2013-01-19 09:42:00,
2013-01-19 04:47:00,54.8,49.4,30.25,NNE,17,3.0,3.0,82,0.00,,,0.00,0,Wunderground v.1.15,2013-01-19 09:47:00,
2013-01-19 04:57:00,55.0,49.6,30.25,NE,48,3.0,3.0,82,0.00,,,0.00,0,Wunderground v.1.15,2013-01-19 09:57:00,
2013-01-19 05:07:00,55.0,49.9,30.25,NNE,13,2.0,6.0,83,0.00,,,0.00,0,Wunderground v.1.15,2013-01-19 10:07:00,
2013-01-19 05:12:00,55.1,50.0,30.25,NE,55,2.0,3.0,83,0.00,,,0.00,0,Wunderground v.1.15,2013-01-19 10:12:00,
2013-01-19 05:17:00,55.1,50.0,30.25,North,11,3.0,3.0,83,0.00,,,0.00,0,Wunderground v.1.15,2013-01-19 10:17:00,
2013-01-19 05:27:00,55.1,50.0,30.24,NNE,17,2.0,3.0,83,0.00,,,0.00,0,Wunderground v.1.15,2013-01-19 10:27:00,
2013-01-19 05:32:00,55.1,50.0,30.25,NNE,24,3.0,4.0,83,0.00,,,0.00,0,Wunderground v.1.15,2013-01-19 10:32:00,
2013-01-19 05:37:00,55.3,50.2,30.25,NNE,20,3.0,4.0,83,0.00,,,0.00,0,Wunderground v.1.15,2013-01-19 10:37:00,
2013-01-19 05:47:00,55.3,50.2,30.25,NNE,25,3.0,5.0,83,0.00,,,0.00,0,Wunderground v.1.15,2013-01-19 10:47:00,
2013-01-19 05:52:00,55.1,50.0,30.25,NE,40,3.0,3.0,83,0.00,,,0.00,0,Wunderground v.1.15,2013-01-19 10:52:00,
2013-01-19 06:02:00,55.0,50.3,30.24,NNE,13,2.0,2.0,84,0.00,,,0.00,0,Wunderground v.1.15,2013-01-19 11:02:00,
2013-01-19 06:12:00,54.8,50.4,30.25,ENE,71,2.0,5.0,85,0.00,,,0.00,0,Wunderground v.1.15,2013-01-19 11:12:00,
2013-01-19 07:52:00,56.5,52.0,30.25,NE,44,5.0,8.0,85,0.00,,,0.00,28,Wunderground v.1.15,2013-01-19 12:52:00,
2013-01-19 07:57:00,56.5,51.7,30.26,NNE,20,4.0,8.0,84,0.00,,,0.00,39,Wunderground v.1.15,2013-01-19 12:57:00,
2013-01-19 08:07:00,56.6,51.8,30.26,North,0,4.0,5.0,84,0.00,,,0.00,51,Wunderground v.1.15,2013-01-19 13:07:00,
2013-01-19 08:17:00,56.9,51.8,30.26,NE,35,5.0,5.0,83,0.00,,,0.00,65,Wunderground v.1.15,2013-01-19 13:17:00,
2013-01-19 08:22:00,56.9,51.8,30.27,NE,38,4.0,8.0,83,0.00,,,0.00,55,Wunderground v.1.15,2013-01-19 13:22:00,
2013-01-19 08:27:00,57.0,51.9,30.27,NE,34,5.0,8.0,83,0.00,,,0.00,144,Wunderground v.1.15,2013-01-19 13:27:00,
2013-01-19 08:32:00,57.2,51.8,30.27,ENE,58,5.0,7.0,82,0.00,,,0.00,79,Wunderground v.1.15,2013-01-19 13:32:00,
2013-01-19 08:37:00,57.5,52.0,30.27,NE,41,4.0,7.0,82,0.00,,,0.00,229,Wunderground v.1.15,2013-01-19 13:37:00,
2013-01-19 08:42:00,57.6,51.8,30.27,NE,48,4.0,4.0,81,0.00,,,0.00,102,Wunderground v.1.15,2013-01-19 13:42:00,
2013-01-19 08:52:00,58.0,52.2,30.27,NE,45,5.0,5.0,81,0.00,,,0.00,95,Wunderground v.1.15,2013-01-19 13:52:00,
2013-01-19 09:02:00,58.3,52.5,30.27,ENE,58,4.0,10.0,81,0.00,,,0.00,315,Wunderground v.1.15,2013-01-19 14:02:00,
2013-01-19 09:12:00,58.4,52.6,30.27,NE,54,6.0,6.0,81,0.00,,,0.00,238,Wunderground v.1.15,2013-01-19 14:12:00,
2013-01-19 09:17:00,58.9,53.1,30.27,NE,42,5.0,6.0,81,0.00,,,0.00,245,Wunderground v.1.15,2013-01-19 14:17:00,
2013-01-19 09:27:00,60.9,53.6,30.28,ENE,66,6.0,12.0,77,0.00,,,0.00,413,Wunderground v.1.15,2013-01-19 14:27:00,
2013-01-19 09:32:00,60.9,53.3,30.28,ENE,72,7.0,10.0,76,0.00,,,0.00,398,Wunderground v.1.15,2013-01-19 14:32:00,
2013-01-19 09:37:00,61.3,53.3,30.28,NE,55,6.0,10.0,75,0.00,,,0.00,410,Wunderground v.1.15,2013-01-19 14:37:00,
2013-01-19 09:42:00,62.0,54.0,30.28,NE,40,5.0,5.0,75,0.00,,,0.00,422,Wunderground v.1.15,2013-01-19 14:42:00,
2013-01-19 09:47:00,62.6,53.8,30.28,NNE,24,5.0,5.0,73,0.00,,,0.00,440,Wunderground v.1.15,2013-01-19 14:47:00,
2013-01-19 09:57:00,62.6,53.8,30.28,NE,52,6.0,6.0,73,0.00,,,0.00,468,Wunderground v.1.15,2013-01-19 14:57:00,
2013-01-19 10:02:00,62.6,54.2,30.28,ENE,66,6.0,6.0,74,0.00,,,0.00,477,Wunderground v.1.15,2013-01-19 15:02:00,
2013-01-19 10:07:00,63.1,54.3,30.28,NE,48,5.0,10.0,73,0.00,,,0.00,493,Wunderground v.1.15,2013-01-19 15:07:00,
2013-01-19 10:17:00,63.9,54.7,30.28,ENE,58,7.0,8.0,72,0.00,,,0.00,519,Wunderground v.1.15,2013-01-19 15:17:00,
2013-01-19 10:27:00,64.7,54.7,30.28,NE,51,8.0,10.0,70,0.00,,,0.00,537,Wunderground v.1.15,2013-01-19 15:27:00,
2013-01-19 10:32:00,65.3,54.9,30.28,ENE,59,7.0,10.0,69,0.00,,,0.00,545,Wunderground v.1.15,2013-01-19 15:32:00,
2013-01-19 10:37:00,65.5,54.7,30.28,NE,56,8.0,10.0,68,0.00,,,0.00,558,Wunderground v.1.15,2013-01-19 15:37:00,
2013-01-19 10:47:00,67.4,56.1,30.28,ENE,61,7.0,8.0,67,0.00,,,0.00,579,Wunderground v.1.15,2013-01-19 15:47:00,
2013-01-19 10:52:00,67.6,56.2,30.28,NE,40,6.0,6.0,67,0.00,,,0.00,589,Wunderground v.1.15,2013-01-19 15:52:00,
2013-01-19 10:57:00,67.6,55.8,30.28,NNE,24,6.0,9.0,66,0.00,,,0.00,596,Wunderground v.1.15,2013-01-19 15:57:00,
2013-01-19 11:07:00,67.8,56.4,30.28,NE,52,7.0,8.0,67,0.00,,,0.00,614,Wunderground v.1.15,2013-01-19 16:07:00,
2013-01-19 11:17:00,68.4,56.2,30.27,East,88,10.0,14.0,65,0.00,,,0.00,630,Wunderground v.1.15,2013-01-19 16:17:00,
2013-01-19 11:27:00,69.1,56.4,30.26,East,88,10.0,12.0,64,0.00,,,0.00,644,Wunderground v.1.15,2013-01-19 16:27:00,
2013-01-19 11:32:00,69.4,56.7,30.26,NE,45,10.0,10.0,64,0.00,,,0.00,632,Wunderground v.1.15,2013-01-19 16:32:00,
2013-01-19 11:37:00,69.4,57.1,30.26,ENE,66,9.0,10.0,65,0.00,,,0.00,656,Wunderground v.1.15,2013-01-19 16:37:00,
2013-01-19 11:47:00,70.1,56.9,30.25,ENE,61,10.0,12.0,63,0.00,,,0.00,663,Wunderground v.1.15,2013-01-19 16:47:00,
2013-01-19 11:52:00,70.9,57.2,30.25,NE,51,10.0,10.0,62,0.00,,,0.00,676,Wunderground v.1.15,2013-01-19 16:52:00,
2013-01-19 12:02:00,70.8,57.1,30.24,ENE,65,9.0,12.0,62,0.00,,,0.00,688,Wunderground v.1.15,2013-01-19 17:02:00,
2013-01-19 12:22:00,72.1,57.4,30.22,ENE,66,10.0,10.0,60,0.00,,,0.00,677,Wunderground v.1.15,2013-01-19 17:22:00,
2013-01-19 12:32:00,72.1,57.9,30.22,NE,51,8.0,8.0,61,0.00,,,0.00,700,Wunderground v.1.15,2013-01-19 17:32:00,
2013-01-19 12:47:00,73.5,57.8,30.21,ENE,75,7.0,9.0,58,0.00,,,0.00,714,Wunderground v.1.15,2013-01-19 17:47:00,
2013-01-19 13:02:00,74.0,59.2,30.19,ENE,64,6.0,10.0,60,0.00,,,0.00,730,Wunderground v.1.15,2013-01-19 18:02:00,
2013-01-19 13:12:00,73.7,58.5,30.19,ENE,59,8.0,12.0,59,0.00,,,0.00,426,Wunderground v.1.15,2013-01-19 18:12:00,
2013-01-19 13:17:00,75.1,58.8,30.19,ENE,62,8.0,12.0,57,0.00,,,0.00,765,Wunderground v.1.15,2013-01-19 18:17:00,
2013-01-19 13:37:00,73.0,58.3,30.17,NNE,20,8.0,9.0,60,0.00,,,0.00,290,Wunderground v.1.15,2013-01-19 18:37:00,
2013-01-19 13:47:00,73.9,58.7,30.16,ENE,59,7.0,11.0,59,0.00,,,0.00,602,Wunderground v.1.15,2013-01-19 18:47:00,
2013-01-19 13:57:00,73.2,58.5,30.16,East,88,8.0,13.0,60,0.00,,,0.00,294,Wunderground v.1.15,2013-01-19 18:57:00,
2013-01-19 14:02:00,73.3,58.6,30.16,NE,48,7.0,7.0,60,0.00,,,0.00,262,Wunderground v.1.15,2013-01-19 19:02:00,
2013-01-19 14:22:00,73.3,59.0,30.15,ENE,69,6.0,6.0,61,0.00,,,0.00,252,Wunderground v.1.15,2013-01-19 19:22:00,
2013-01-19 14:32:00,73.5,58.8,30.14,ENE,58,6.0,6.0,60,0.00,,,0.00,220,Wunderground v.1.15,2013-01-19 19:32:00,
2013-01-19 14:42:00,73.7,58.9,30.14,ENE,69,6.0,8.0,60,0.00,,,0.00,257,Wunderground v.1.15,2013-01-19 19:42:00,
2013-01-19 14:52:00,73.7,58.9,30.14,ENE,59,6.0,13.0,60,0.00,,,0.00,282,Wunderground v.1.15,2013-01-19 19:52:00,
2013-01-19 15:02:00,73.7,58.5,30.14,NE,48,8.0,8.0,59,0.00,,,0.00,255,Wunderground v.1.15,2013-01-19 20:02:00,
2013-01-19 15:27:00,73.9,59.1,30.13,ENE,68,8.0,12.0,60,0.00,,,0.00,282,Wunderground v.1.15,2013-01-19 20:27:00,
2013-01-19 15:37:00,73.7,58.5,30.13,NE,51,7.0,9.0,59,0.00,,,0.00,257,Wunderground v.1.15,2013-01-19 20:37:00,
2013-01-19 15:42:00,73.7,58.9,30.13,ENE,76,6.0,6.0,60,0.00,,,0.00,220,Wunderground v.1.15,2013-01-19 20:42:00,
2013-01-19 15:52:00,73.9,58.7,30.13,ENE,59,6.0,6.0,59,0.00,,,0.00,204,Wunderground v.1.15,2013-01-19 20:52:00,
2013-01-19 16:07:00,74.6,59.3,30.13,ENE,59,5.0,5.0,59,0.00,,,0.00,153,Wunderground v.1.15,2013-01-19 21:07:00,
2013-01-19 16:12:00,74.6,59.3,30.13,ENE,62,6.0,7.0,59,0.00,,,0.00,123,Wunderground v.1.15,2013-01-19 21:12:00,
2013-01-19 16:22:00,74.2,58.9,30.13,NE,47,6.0,6.0,59,0.00,,,0.00,116,Wunderground v.1.15,2013-01-19 21:22:00,
2013-01-19 16:32:00,74.0,58.8,30.14,NE,54,6.0,8.0,59,0.00,,,0.00,127,Wunderground v.1.15,2013-01-19 21:32:00,
2013-01-19 16:42:00,73.9,59.1,30.14,NE,48,5.0,5.0,60,0.00,,,0.00,102,Wunderground v.1.15,2013-01-19 21:42:00,
2013-01-19 16:52:00,73.7,58.9,30.14,NE,55,7.0,7.0,60,0.00,,,0.00,49,Wunderground v.1.15,2013-01-19 21:52:00,
2013-01-19 16:57:00,73.5,58.8,30.14,ENE,61,6.0,7.0,60,0.00,,,0.00,48,Wunderground v.1.15,2013-01-19 21:57:00,
2013-01-19 17:07:00,73.3,59.5,30.14,ENE,66,3.0,4.0,62,0.00,,,0.00,35,Wunderground v.1.15,2013-01-19 22:07:00,
2013-01-19 17:17:00,73.0,59.2,30.14,ENE,61,3.0,5.0,62,0.00,,,0.00,26,Wunderground v.1.15,2013-01-19 22:17:00,
2013-01-19 17:22:00,73.0,59.7,30.14,ENE,62,4.0,4.0,63,0.00,,,0.00,26,Wunderground v.1.15,2013-01-19 22:22:00,
2013-01-19 17:27:00,72.8,59.5,30.14,NE,52,3.0,4.0,63,0.00,,,0.00,18,Wunderground v.1.15,2013-01-19 22:27:00,
2013-01-19 17:32:00,72.7,59.8,30.14,NE,44,3.0,6.0,64,0.00,,,0.00,7,Wunderground v.1.15,2013-01-19 22:32:00,
2013-01-19 17:47:00,72.3,59.9,30.15,NE,51,5.0,9.0,65,0.00,,,0.00,0,Wunderground v.1.15,2013-01-19 22:47:00,
2013-01-19 17:57:00,72.0,59.6,30.15,NE,38,4.0,7.0,65,0.00,,,0.00,0,Wunderground v.1.15,2013-01-19 22:57:00,
2013-01-19 18:07:00,71.8,59.4,30.15,NE,48,3.0,4.0,65,0.00,,,0.00,0,Wunderground v.1.15,2013-01-19 23:07:00,
2013-01-19 18:17:00,71.6,60.1,30.15,NE,40,3.0,3.0,67,0.00,,,0.00,0,Wunderground v.1.15,2013-01-19 23:17:00,
2013-01-19 18:27:00,71.5,60.0,30.15,NE,51,4.0,5.0,67,0.00,,,0.00,0,Wunderground v.1.15,2013-01-19 23:27:00,
2013-01-19 18:37:00,71.3,60.2,30.15,NE,47,4.0,4.0,68,0.00,,,0.00,0,Wunderground v.1.15,2013-01-19 23:37:00,
2013-01-19 18:42:00,71.1,60.0,30.15,NE,54,4.0,4.0,68,0.00,,,0.00,0,Wunderground v.1.15,2013-01-19 23:42:00,
2013-01-19 19:02:00,70.9,60.2,30.16,NE,34,3.0,6.0,69,0.00,,,0.00,0,Wunderground v.1.15,2013-01-20 00:02:00,
2013-01-19 19:07:00,70.8,60.1,30.16,ENE,75,3.0,6.0,69,0.00,,,0.00,0,Wunderground v.1.15,2013-01-20 00:07:00,
2013-01-19 19:12:00,70.8,60.1,30.16,NE,38,4.0,4.0,69,0.00,,,0.00,0,Wunderground v.1.15,2013-01-20 00:12:00,
2013-01-19 19:22:00,70.8,60.1,30.16,ENE,65,4.0,4.0,69,0.00,,,0.00,0,Wunderground v.1.15,2013-01-20 00:22:00,
2013-01-19 19:32:00,70.6,59.9,30.16,NE,41,3.0,3.0,69,0.00,,,0.00,0,Wunderground v.1.15,2013-01-20 00:32:00,
2013-01-19 19:42:00,70.4,60.1,30.16,NNE,21,3.0,3.0,70,0.00,,,0.00,0,Wunderground v.1.15,2013-01-20 00:42:00,
2013-01-19 19:47:00,70.3,60.1,30.16,NE,41,4.0,4.0,70,0.00,,,0.00,0,Wunderground v.1.15,2013-01-20 00:47:00,
2013-01-19 19:52:00,70.3,60.1,30.17,NE,54,4.0,4.0,70,0.00,,,0.00,0,Wunderground v.1.15,2013-01-20 00:52:00,
2013-01-19 20:02:00,69.9,59.7,30.17,ENE,65,4.0,5.0,70,0.00,,,0.00,0,Wunderground v.1.15,2013-01-20 01:02:00,
2013-01-19 20:07:00,69.9,60.1,30.17,NE,45,4.0,5.0,71,0.00,,,0.00,0,Wunderground v.1.15,2013-01-20 01:07:00,
2013-01-19 20:17:00,69.9,60.1,30.17,NE,48,3.0,4.0,71,0.00,,,0.00,0,Wunderground v.1.15,2013-01-20 01:17:00,
2013-01-19 20:32:00,69.6,59.8,30.17,NE,55,4.0,10.0,71,0.00,,,0.00,0,Wunderground v.1.15,2013-01-20 01:32:00,
2013-01-19 20:37:00,69.6,59.8,30.17,ENE,62,5.0,10.0,71,0.00,,,0.00,0,Wunderground v.1.15,2013-01-20 01:37:00,
2013-01-19 20:47:00,69.3,59.9,30.17,NE,48,4.0,7.0,72,0.00,,,0.00,0,Wunderground v.1.15,2013-01-20 01:47:00,
2013-01-19 20:52:00,69.1,59.7,30.17,ENE,68,5.0,7.0,72,0.00,,,0.00,0,Wunderground v.1.15,2013-01-20 01:52:00,
2013-01-19 21:07:00,68.8,59.8,30.16,NE,52,5.0,7.0,73,0.00,,,0.00,0,Wunderground v.1.15,2013-01-20 02:07:00,
2013-01-19 21:12:00,68.6,60.0,30.16,ENE,75,5.0,5.0,74,0.00,,,0.00,0,Wunderground v.1.15,2013-01-20 02:12:00,
2013-01-19 21:57:00,67.8,60.3,30.16,ENE,64,4.0,4.0,77,0.00,,,0.00,0,Wunderground v.1.15,2013-01-20 02:57:00,
2013-01-19 22:17:00,67.3,60.2,30.16,NE,51,3.0,3.0,78,0.00,,,0.00,0,Wunderground v.1.15,2013-01-20 03:17:00,
2013-01-19 22:22:00,67.1,60.4,30.16,ENE,65,3.0,3.0,79,0.00,,,0.00,0,Wunderground v.1.15,2013-01-20 03:22:00,
2013-01-19 22:37:00,66.8,60.1,30.16,ENE,61,3.0,5.0,79,0.00,,,0.00,0,Wunderground v.1.15,2013-01-20 03:37:00,
2013-01-19 22:42:00,66.8,60.4,30.16,NE,52,3.0,3.0,80,0.00,,,0.00,0,Wunderground v.1.15,2013-01-20 03:42:00,
2013-01-19 22:52:00,66.6,60.2,30.16,NE,54,3.0,3.0,80,0.00,,,0.00,0,Wunderground v.1.15,2013-01-20 03:52:00,
2013-01-19 22:57:00,66.4,60.0,30.16,NE,37,3.0,3.0,80,0.00,,,0.00,0,Wunderground v.1.15,2013-01-20 03:57:00,
2013-01-19 23:07:00,66.4,60.4,30.16,NE,35,3.0,3.0,81,0.00,,,0.00,0,Wunderground v.1.15,2013-01-20 04:07:00,
2013-01-19 23:12:00,66.3,60.3,30.16,NE,52,3.0,3.0,81,0.00,,,0.00,0,Wunderground v.1.15,2013-01-20 04:12:00,
2013-01-19 23:27:00,66.1,60.1,30.16,ENE,72,4.0,4.0,81,0.00,,,0.00,0,Wunderground v.1.15,2013-01-20 04:27:00,
2013-01-19 23:42:00,66.0,60.0,30.15,NE,47,3.0,3.0,81,0.00,,,0.00,0,Wunderground v.1.15,2013-01-20 04:42:00,
2013-01-19 23:52:00,65.8,59.8,30.16,NE,42,2.0,2.0,81,0.00,,,0.00,0,Wunderground v.1.15,2013-01-20 04:52:00,
2013-01-19 23:57:00,65.8,59.8,30.15,NNE,32,2.0,2.0,81,0.00,,,0.00,0,Wunderground v.1.15,2013-01-20 04:57:00,